EDDH/HAM METAR and TAF weather

Enter ICAO airport designator
Station Type Date Time Source
EDDH METAR 2020/07/12 03:50 UTC NOAA

EDDH 120350Z VRB02KT 9999 FEW025 10/09 Q1026 NOSIG


Station Type Date Time Source
EDDH Decoded METAR 2020/07/12 03:50 UTC NOAA

Hamburg-Fuhlsbuettel, Germany (EDDH) 53-38N 010-00E 15M
Jul 11, 2020 - 11:50 PM EDT / 2020.07.12 0350 UTC
Wind: Variable at 2 MPH (2 KT):0
Visibility: greater than 7 mile(s):0
Sky conditions: mostly clear
Temperature: 50 F (10 C)
Dew Point: 48 F (9 C)
Relative Humidity: 93%
Pressure (altimeter): 30.30 in. Hg (1026 hPa)
ob: EDDH 120350Z VRB02KT 9999 FEW025 10/09 Q1026 NOSIG
cycle: 4

Station Type Date Time Source
EDDH TAF 2020/07/11 18:27 UTC NOAA

TAF EDDH 111700Z 1118/1224 32009KT 9999 FEW045
BECMG 1118/1120 26004KT PROB30
TEMPO 1201/1203 2500 BCFG
BECMG 1206/1208 27009KT
BECMG 1212/1214 34010KT
BECMG 1218/1220 26004KT

Example: see airport list